Time;durP1;ratioP1;P1;durP2;ratioP2;P2;SDS_P1;SDS_P2;PMS_P1;PMS_P2;Temp;Humidity;BMP_temperature;BMP_pressure;BME280_temperature;BME280_humidity;BME280_pressure;Samples;Min_cycle;Max_cycle;Signal;HPM_P1;HPM_P2
2021/12/20 00:01:36;;;;;;;1.50;1.20;;;;;;;;;;5070868;28;20229;-76
2021/12/20 00:04:02;;;;;;;2.50;1.30;;;;;;;;;;5053984;28;20275;-76
2021/12/20 00:06:28;;;;;;;2.50;1.30;;;;;;;;;;5070768;28;20180;-76
2021/12/20 00:08:54;;;;;;;3.50;1.27;;;;;;;;;;5054089;28;20173;-76
2021/12/20 00:11:20;;;;;;;2.27;1.33;;;;;;;;;;5054189;28;20172;-76
2021/12/20 00:13:46;;;;;;;2.90;1.40;;;;;;;;;;5057481;28;20564;-76
2021/12/20 00:16:12;;;;;;;2.50;1.40;;;;;;;;;;5074838;28;20682;-76
2021/12/20 00:18:39;;;;;;;1.87;1.30;;;;;;;;;;5058124;28;20187;-76
2021/12/20 00:21:05;;;;;;;3.33;1.20;;;;;;;;;;5057699;28;20226;-76
2021/12/20 00:23:31;;;;;;;2.93;1.30;;;;;;;;;;5074640;28;20168;-76
2021/12/20 00:25:57;;;;;;;5.83;1.40;;;;;;;;;;5058205;28;20264;-76
2021/12/20 00:28:23;;;;;;;2.00;1.40;;;;;;;;;;5058081;28;20251;-76
2021/12/20 00:30:49;;;;;;;2.53;1.57;;;;;;;;;;5074616;28;20176;-76
2021/12/20 00:33:15;;;;;;;2.60;1.10;;;;;;;;;;5074522;28;20179;-76
2021/12/20 00:35:41;;;;;;;2.17;1.43;;;;;;;;;;5057638;28;20219;-76
2021/12/20 00:40:52;;;;;;;2.30;1.50;;;;;;;;;;5074692;28;20198;-76
2021/12/20 00:43:18;;;;;;;2.83;1.60;;;;;;;;;;5057769;28;20541;-76
2021/12/20 00:45:44;;;;;;;3.27;1.60;;;;;;;;;;5074196;28;20738;-76
2021/12/20 00:48:10;;;;;;;3.27;1.20;;;;;;;;;;5074087;28;20204;-76
2021/12/20 00:50:38;;;;;;;3.87;1.30;;;;;;;;;;5073861;28;20223;-76
2021/12/20 00:53:04;;;;;;;5.50;1.50;;;;;;;;;;5074205;28;20180;-76
2021/12/20 00:55:30;;;;;;;3.87;1.70;;;;;;;;;;5057742;28;20193;-76
2021/12/20 00:57:57;;;;;;;3.90;1.33;;;;;;;;;;5074012;28;20525;-76
2021/12/20 01:00:25;;;;;;;2.97;1.77;;;;;;;;;;5057271;28;20184;-76
2021/12/20 01:02:52;;;;;;;3.97;1.57;;;;;;;;;;5073816;28;20218;-76
2021/12/20 01:05:18;;;;;;;4.53;1.57;;;;;;;;;;5074010;28;20200;-76
2021/12/20 01:07:45;;;;;;;2.63;1.53;;;;;;;;;;5057283;28;20302;-76
2021/12/20 01:10:11;;;;;;;4.13;1.40;;;;;;;;;;5057280;28;20177;-76
2021/12/20 01:12:46;;;;;;;2.90;1.90;;;;;;;;;;5057089;28;20275;-76
2021/12/20 01:15:15;;;;;;;2.43;1.50;;;;;;;;;;5073622;28;20271;-76
2021/12/20 01:17:42;;;;;;;3.13;1.60;;;;;;;;;;5073891;28;20177;-76
2021/12/20 01:20:08;;;;;;;6.73;1.90;;;;;;;;;;5073835;28;20212;-76
2021/12/20 01:22:34;;;;;;;5.67;2.03;;;;;;;;;;5073440;28;20180;-76
2021/12/20 01:25:00;;;;;;;4.77;1.50;;;;;;;;;;5073051;28;20684;-76
2021/12/20 01:27:26;;;;;;;3.37;1.53;;;;;;;;;;5057024;28;20204;-76
2021/12/20 01:29:52;;;;;;;4.57;1.90;;;;;;;;;;5073358;28;20207;-76
2021/12/20 01:32:18;;;;;;;5.13;1.60;;;;;;;;;;5073463;28;20176;-76
2021/12/20 01:34:44;;;;;;;6.40;2.10;;;;;;;;;;5056563;28;20302;-76
2021/12/20 01:37:13;;;;;;;3.87;1.80;;;;;;;;;;5056752;28;20641;-76
2021/12/20 01:39:39;;;;;;;8.37;2.53;;;;;;;;;;5056998;28;20180;-76
2021/12/20 01:42:05;;;;;;;4.70;1.70;;;;;;;;;;5056399;28;20192;-76
2021/12/20 01:44:31;;;;;;;5.40;1.90;;;;;;;;;;5056520;28;20734;-76
2021/12/20 01:47:01;;;;;;;4.93;1.93;;;;;;;;;;5073292;28;20204;-76
2021/12/20 01:49:28;;;;;;;5.73;2.00;;;;;;;;;;5057083;28;20184;-76
2021/12/20 01:54:23;;;;;;;3.87;1.70;;;;;;;;;;5074200;28;20220;-76
2021/12/20 01:56:49;;;;;;;5.30;1.90;;;;;;;;;;5073036;28;20188;-76
2021/12/20 01:59:15;;;;;;;4.87;1.90;;;;;;;;;;5056312;28;20233;-76
2021/12/20 02:01:43;;;;;;;6.80;2.00;;;;;;;;;;5056251;28;20326;-76
2021/12/20 02:04:10;;;;;;;5.67;2.20;;;;;;;;;;5056548;28;20181;-76
2021/12/20 02:06:40;;;;;;;7.93;2.00;;;;;;;;;;5072759;28;20202;-76
2021/12/20 02:09:11;;;;;;;5.33;2.10;;;;;;;;;;5072827;28;20176;-76
2021/12/20 02:11:38;;;;;;;8.50;2.10;;;;;;;;;;5055958;28;20181;-76
2021/12/20 02:14:06;;;;;;;8.80;1.97;;;;;;;;;;5072837;28;20258;-76
2021/12/20 02:16:32;;;;;;;8.13;2.90;;;;;;;;;;5072803;28;20180;-76
2021/12/20 02:19:01;;;;;;;13.67;2.57;;;;;;;;;;5072599;28;20650;-76
2021/12/20 02:21:27;;;;;;;7.20;1.80;;;;;;;;;;5072400;28;20266;-76
2021/12/20 02:23:53;;;;;;;5.90;1.70;;;;;;;;;;5055917;28;20267;-76
2021/12/20 02:26:20;;;;;;;9.50;2.47;;;;;;;;;;5072101;28;20289;-76
2021/12/20 02:28:48;;;;;;;8.53;2.33;;;;;;;;;;5056169;28;20335;-76
2021/12/20 02:39:11;;;;;;;7.47;2.00;;;;;;;;;;5072626;28;20187;-76
2021/12/20 02:41:37;;;;;;;7.83;2.37;;;;;;;;;;5055170;28;20275;-76
2021/12/20 02:44:11;;;;;;;9.83;2.60;;;;;;;;;;5055539;28;20202;-76
2021/12/20 02:49:06;;;;;;;6.77;2.00;;;;;;;;;;5073020;28;20177;-76
2021/12/20 02:51:33;;;;;;;7.23;1.93;;;;;;;;;;5071834;28;20173;-76
2021/12/20 02:54:00;;;;;;;7.97;2.10;;;;;;;;;;5055494;28;20306;-76
2021/12/20 02:56:26;;;;;;;7.93;2.30;;;;;;;;;;5055413;28;20180;-76
2021/12/20 02:58:53;;;;;;;6.00;2.00;;;;;;;;;;5055140;28;20230;-76
2021/12/20 03:01:20;;;;;;;8.90;2.10;;;;;;;;;;5055120;28;20207;-76
2021/12/20 03:03:48;;;;;;;5.77;1.90;;;;;;;;;;5071450;28;20176;-76
2021/12/20 03:06:19;;;;;;;10.43;2.10;;;;;;;;;;5071512;28;20193;-76
2021/12/20 03:08:48;;;;;;;7.50;2.13;;;;;;;;;;5071654;28;20185;-76
2021/12/20 03:11:14;;;;;;;7.27;2.07;;;;;;;;;;5071480;28;20208;-76
2021/12/20 03:13:43;;;;;;;7.20;2.10;;;;;;;;;;5071808;28;20622;-76
2021/12/20 03:16:09;;;;;;;10.33;2.43;;;;;;;;;;5071181;28;20745;-76
2021/12/20 03:18:35;;;;;;;9.60;2.30;;;;;;;;;;5071564;28;20185;-76
2021/12/20 03:21:01;;;;;;;9.73;2.27;;;;;;;;;;5054770;28;20665;-76
2021/12/20 03:23:27;;;;;;;9.90;2.30;;;;;;;;;;5071309;28;20190;-76
2021/12/20 03:25:53;;;;;;;7.80;2.30;;;;;;;;;;5054694;28;20199;-76
2021/12/20 03:28:19;;;;;;;11.00;2.30;;;;;;;;;;5071493;28;20207;-76
2021/12/20 03:30:45;;;;;;;12.03;2.70;;;;;;;;;;5054377;28;20180;-76
2021/12/20 03:33:11;;;;;;;11.27;2.00;;;;;;;;;;5054697;28;20223;-76
2021/12/20 03:35:37;;;;;;;5.53;1.80;;;;;;;;;;5071029;28;20234;-76
2021/12/20 03:38:04;;;;;;;9.97;2.77;;;;;;;;;;5054695;28;20207;-76
2021/12/20 03:40:30;;;;;;;10.20;2.37;;;;;;;;;;5070983;28;20180;-76
2021/12/20 03:42:56;;;;;;;8.97;2.07;;;;;;;;;;5070926;28;20658;-76
2021/12/20 03:45:22;;;;;;;11.17;2.20;;;;;;;;;;5054431;28;20203;-76
2021/12/20 03:47:48;;;;;;;9.87;2.67;;;;;;;;;;5054331;28;20578;-76
2021/12/20 03:50:15;;;;;;;10.13;1.90;;;;;;;;;;5054506;28;20183;-76
2021/12/20 03:52:41;;;;;;;6.90;2.33;;;;;;;;;;5070995;28;20304;-76
2021/12/20 03:55:11;;;;;;;7.93;2.00;;;;;;;;;;5054291;28;20199;-76
2021/12/20 03:57:37;;;;;;;8.20;2.30;;;;;;;;;;5054324;28;20182;-76
2021/12/20 04:00:04;;;;;;;10.07;2.17;;;;;;;;;;5070703;28;20207;-76
2021/12/20 04:02:37;;;;;;;8.17;1.90;;;;;;;;;;5070872;28;20183;-76
2021/12/20 04:05:04;;;;;;;4.97;2.27;;;;;;;;;;5055267;28;20203;-76
2021/12/20 04:07:30;;;;;;;9.60;2.23;;;;;;;;;;5054443;28;20199;-76
2021/12/20 04:09:56;;;;;;;10.33;1.93;;;;;;;;;;5054288;28;20244;-76
2021/12/20 04:12:22;;;;;;;8.57;2.27;;;;;;;;;;5053881;28;20179;-76
2021/12/20 04:14:48;;;;;;;6.83;2.17;;;;;;;;;;5053914;28;20449;-76
2021/12/20 04:17:14;;;;;;;5.00;1.90;;;;;;;;;;5053982;28;20190;-76
2021/12/20 04:19:40;;;;;;;6.70;1.77;;;;;;;;;;5054043;28;20187;-76
2021/12/20 04:22:06;;;;;;;9.90;2.20;;;;;;;;;;5070575;28;20177;-76
2021/12/20 04:24:32;;;;;;;6.30;2.00;;;;;;;;;;5054025;28;20209;-76
2021/12/20 04:26:58;;;;;;;5.00;1.70;;;;;;;;;;5070427;28;20217;-76
2021/12/20 04:29:24;;;;;;;6.13;1.80;;;;;;;;;;5070801;28;20185;-76
2021/12/20 04:31:50;;;;;;;7.20;2.00;;;;;;;;;;5053825;28;20556;-76
2021/12/20 04:34:17;;;;;;;7.23;1.97;;;;;;;;;;5070468;28;20195;-76
2021/12/20 04:36:43;;;;;;;8.20;2.40;;;;;;;;;;5070634;28;20233;-76
2021/12/20 04:39:13;;;;;;;5.87;1.90;;;;;;;;;;5070471;28;20655;-76
2021/12/20 04:41:40;;;;;;;8.03;1.90;;;;;;;;;;5070306;28;20178;-80
2021/12/20 04:44:06;;;;;;;6.20;1.77;;;;;;;;;;5054101;28;20178;-77
2021/12/20 04:46:32;;;;;;;8.53;1.80;;;;;;;;;;5070436;28;20177;-77
2021/12/20 04:48:58;;;;;;;8.07;2.30;;;;;;;;;;5070483;28;20184;-76
2021/12/20 04:51:24;;;;;;;7.03;1.90;;;;;;;;;;5070196;28;20206;-76
2021/12/20 04:53:50;;;;;;;4.87;1.80;;;;;;;;;;5070401;28;20176;-76
2021/12/20 04:56:16;;;;;;;5.63;2.10;;;;;;;;;;5053636;28;20197;-76
2021/12/20 04:58:42;;;;;;;9.23;2.03;;;;;;;;;;5071560;28;20205;-76
2021/12/20 05:01:08;;;;;;;4.47;1.50;;;;;;;;;;5057306;28;20692;-76
2021/12/20 05:03:34;;;;;;;6.23;1.57;;;;;;;;;;5073906;28;20268;-76
2021/12/20 05:06:00;;;;;;;4.63;1.80;;;;;;;;;;5057354;28;20229;-76
2021/12/20 05:08:33;;;;;;;8.13;2.33;;;;;;;;;;5073759;28;20310;-77
2021/12/20 05:10:59;;;;;;;6.50;1.80;;;;;;;;;;5057903;28;20174;-76
2021/12/20 05:13:25;;;;;;;6.17;1.97;;;;;;;;;;5074119;28;20221;-76
2021/12/20 05:15:51;;;;;;;6.23;2.10;;;;;;;;;;5057058;28;20260;-76
2021/12/20 05:18:17;;;;;;;5.90;1.83;;;;;;;;;;5057103;28;20620;-76
2021/12/20 05:20:44;;;;;;;8.07;2.27;;;;;;;;;;5056920;28;20240;-76
2021/12/20 05:23:10;;;;;;;5.23;1.50;;;;;;;;;;5057263;28;20540;-76
2021/12/20 05:25:36;;;;;;;4.87;1.90;;;;;;;;;;5057138;28;20209;-76
2021/12/20 05:28:03;;;;;;;5.47;1.77;;;;;;;;;;5073571;28;20206;-76
2021/12/20 05:30:29;;;;;;;10.00;1.80;;;;;;;;;;5056990;28;20178;-76
2021/12/20 05:32:55;;;;;;;5.30;1.90;;;;;;;;;;5073384;28;20185;-76
2021/12/20 05:35:21;;;;;;;7.33;1.90;;;;;;;;;;5057078;28;20348;-76
2021/12/20 05:37:48;;;;;;;7.13;2.00;;;;;;;;;;5056828;28;20176;-77
2021/12/20 05:40:14;;;;;;;5.30;1.80;;;;;;;;;;5056705;28;20617;-77
2021/12/20 05:42:41;;;;;;;7.43;1.90;;;;;;;;;;5056585;28;20177;-77
2021/12/20 05:45:08;;;;;;;6.60;2.10;;;;;;;;;;5073170;28;20198;-77
2021/12/20 05:47:34;;;;;;;6.40;1.90;;;;;;;;;;5056632;28;20206;-77
2021/12/20 05:50:00;;;;;;;7.80;1.90;;;;;;;;;;5056931;28;20181;-77
2021/12/20 05:52:26;;;;;;;6.47;1.80;;;;;;;;;;5072697;28;20181;-77
2021/12/20 05:54:52;;;;;;;6.13;2.10;;;;;;;;;;5073263;28;20203;-77
2021/12/20 05:57:18;;;;;;;8.80;2.10;;;;;;;;;;5073148;28;20182;-77
2021/12/20 05:59:44;;;;;;;4.97;1.63;;;;;;;;;;5056524;28;20230;-77
2021/12/20 06:02:10;;;;;;;8.47;1.73;;;;;;;;;;5056056;28;20705;-76
2021/12/20 06:04:36;;;;;;;4.50;1.67;;;;;;;;;;5056220;28;20202;-77
2021/12/20 06:07:02;;;;;;;5.43;1.77;;;;;;;;;;5072744;28;20575;-77
2021/12/20 06:09:28;;;;;;;5.17;1.80;;;;;;;;;;5072825;28;20635;-79
2021/12/20 06:11:59;;;;;;;7.43;1.97;;;;;;;;;;5072699;28;20785;-79
2021/12/20 06:14:25;;;;;;;5.13;1.80;;;;;;;;;;5072706;28;20196;-79
2021/12/20 06:16:51;;;;;;;6.73;2.43;;;;;;;;;;5056093;28;20185;-79
2021/12/20 06:19:17;;;;;;;5.83;1.60;;;;;;;;;;5056180;28;20180;-79
2021/12/20 06:21:43;;;;;;;6.47;1.80;;;;;;;;;;5055044;28;20287;-79
2021/12/20 06:24:09;;;;;;;8.53;2.37;;;;;;;;;;5055688;28;20677;-79
2021/12/20 06:26:35;;;;;;;9.27;1.80;;;;;;;;;;5055758;28;20224;-79
2021/12/20 06:29:01;;;;;;;9.10;3.10;;;;;;;;;;5055809;28;20181;-79
2021/12/20 06:31:27;;;;;;;8.53;2.30;;;;;;;;;;5055383;28;20177;-80
2021/12/20 06:33:54;;;;;;;5.53;1.67;;;;;;;;;;5055993;28;20264;-81
2021/12/20 06:36:21;;;;;;;6.10;2.10;;;;;;;;;;5055697;28;20192;-81
2021/12/20 06:38:47;;;;;;;8.33;2.10;;;;;;;;;;5056074;28;20180;-81
2021/12/20 06:41:13;;;;;;;5.77;1.80;;;;;;;;;;5072277;28;20555;-80
2021/12/20 06:43:40;;;;;;;6.37;2.03;;;;;;;;;;5055791;28;20183;-79
2021/12/20 06:46:06;;;;;;;6.53;1.70;;;;;;;;;;5071950;28;20199;-79
2021/12/20 06:48:32;;;;;;;6.00;1.90;;;;;;;;;;5055339;28;20240;-79
2021/12/20 06:50:58;;;;;;;6.50;2.30;;;;;;;;;;5055214;28;20188;-80
2021/12/20 06:53:24;;;;;;;6.10;2.27;;;;;;;;;;5055578;28;20184;-78
2021/12/20 06:55:50;;;;;;;7.23;2.53;;;;;;;;;;5055333;28;20200;-79
2021/12/20 06:58:16;;;;;;;5.30;1.70;;;;;;;;;;5055458;28;20216;-78
2021/12/20 07:00:42;;;;;;;8.27;2.47;;;;;;;;;;5055070;28;20188;-77
2021/12/20 07:03:08;;;;;;;8.67;3.10;;;;;;;;;;5055343;28;20185;-80
2021/12/20 07:05:34;;;;;;;5.70;2.07;;;;;;;;;;5055130;28;20196;-83
2021/12/20 07:08:02;;;;;;;6.87;2.33;;;;;;;;;;5055496;28;20244;-79
2021/12/20 07:10:28;;;;;;;7.47;1.90;;;;;;;;;;5055438;28;20210;-79
2021/12/20 07:12:55;;;;;;;6.83;2.20;;;;;;;;;;5055211;28;20212;-80
2021/12/20 07:15:23;;;;;;;5.97;1.90;;;;;;;;;;5055124;28;20198;-77
2021/12/20 07:17:49;;;;;;;5.53;2.27;;;;;;;;;;5071461;28;20193;-77
2021/12/20 07:20:15;;;;;;;6.90;1.70;;;;;;;;;;5071386;28;20272;-78
2021/12/20 07:22:41;;;;;;;4.73;1.70;;;;;;;;;;5070919;28;20175;-77
2021/12/20 07:25:08;;;;;;;6.90;1.70;;;;;;;;;;5054903;28;20194;-78
2021/12/20 07:27:34;;;;;;;6.73;2.20;;;;;;;;;;5071188;28;20197;-78
2021/12/20 07:30:00;;;;;;;6.40;2.10;;;;;;;;;;5071296;28;20225;-77
2021/12/20 07:32:26;;;;;;;5.87;1.97;;;;;;;;;;5070915;28;20223;-77
2021/12/20 07:34:52;;;;;;;6.90;2.10;;;;;;;;;;5071181;28;20206;-78
2021/12/20 07:37:18;;;;;;;8.13;2.10;;;;;;;;;;5054661;28;20769;-78
2021/12/20 07:39:44;;;;;;;10.87;2.57;;;;;;;;;;5054726;28;20181;-79
2021/12/20 07:42:11;;;;;;;9.13;3.07;;;;;;;;;;5054170;28;20186;-78
2021/12/20 07:44:37;;;;;;;7.60;2.77;;;;;;;;;;5070975;28;20218;-78
2021/12/20 07:47:03;;;;;;;6.90;2.87;;;;;;;;;;5054334;28;20590;-78
2021/12/20 07:49:30;;;;;;;9.80;2.23;;;;;;;;;;5070987;28;20592;-78
2021/12/20 07:51:56;;;;;;;6.17;1.80;;;;;;;;;;5070776;28;20173;-78
2021/12/20 07:54:22;;;;;;;4.70;1.80;;;;;;;;;;5054137;28;20193;-78
2021/12/20 07:56:49;;;;;;;7.37;1.83;;;;;;;;;;5054198;28;20178;-78
2021/12/20 07:59:15;;;;;;;10.93;2.67;;;;;;;;;;5054337;28;20663;-78
2021/12/20 08:01:41;;;;;;;9.43;2.00;;;;;;;;;;5053940;28;20662;-78
2021/12/20 08:04:08;;;;;;;8.30;2.17;;;;;;;;;;5070944;28;20173;-78
2021/12/20 08:06:34;;;;;;;8.70;2.13;;;;;;;;;;5054272;28;20181;-78
2021/12/20 08:09:00;;;;;;;6.83;2.00;;;;;;;;;;5070895;28;20177;-78
2021/12/20 08:11:26;;;;;;;5.40;2.17;;;;;;;;;;5070639;28;20173;-77
2021/12/20 08:13:52;;;;;;;6.70;2.53;;;;;;;;;;5054424;28;20186;-78
2021/12/20 08:16:19;;;;;;;6.60;2.50;;;;;;;;;;5053884;28;20204;-77
2021/12/20 08:18:46;;;;;;;7.70;1.90;;;;;;;;;;5070657;28;20181;-78
2021/12/20 08:21:14;;;;;;;6.20;1.77;;;;;;;;;;5070615;28;20207;-77
2021/12/20 08:23:40;;;;;;;9.43;2.43;;;;;;;;;;5054282;28;20234;-77
2021/12/20 08:26:07;;;;;;;9.63;2.13;;;;;;;;;;5053966;28;20205;-78
2021/12/20 08:28:35;;;;;;;5.67;2.00;;;;;;;;;;5070443;28;20212;-77
2021/12/20 08:31:02;;;;;;;7.50;2.23;;;;;;;;;;5070354;28;20199;-77
2021/12/20 08:33:28;;;;;;;7.47;2.70;;;;;;;;;;5071436;28;20197;-78
2021/12/20 08:35:54;;;;;;;8.00;2.50;;;;;;;;;;5057812;28;20240;-77
2021/12/20 08:38:20;;;;;;;6.33;2.33;;;;;;;;;;5074525;28;20181;-77
2021/12/20 08:40:47;;;;;;;11.67;3.13;;;;;;;;;;5074271;28;20177;-78
2021/12/20 08:43:14;;;;;;;12.03;3.00;;;;;;;;;;5074285;28;20666;-78
2021/12/20 08:45:40;;;;;;;13.40;5.10;;;;;;;;;;5074115;28;20662;-77
2021/12/20 08:48:06;;;;;;;12.13;3.63;;;;;;;;;;5057770;28;20216;-77
2021/12/20 08:50:32;;;;;;;15.13;3.27;;;;;;;;;;5057531;28;20246;-77
2021/12/20 08:52:58;;;;;;;13.83;3.40;;;;;;;;;;5074293;28;20209;-79
2021/12/20 08:55:25;;;;;;;12.43;3.73;;;;;;;;;;5073921;28;20200;-78
2021/12/20 08:57:51;;;;;;;9.67;3.67;;;;;;;;;;5057458;28;20635;-78
2021/12/20 09:00:20;;;;;;;12.60;3.47;;;;;;;;;;5073952;28;20216;-77
2021/12/20 09:02:46;;;;;;;16.37;4.17;;;;;;;;;;5074179;28;20181;-78
2021/12/20 09:05:12;;;;;;;14.20;4.30;;;;;;;;;;5074187;28;20297;-77
2021/12/20 09:07:41;;;;;;;15.47;3.83;;;;;;;;;;5060063;28;20283;-78
2021/12/20 09:10:07;;;;;;;14.63;4.30;;;;;;;;;;5068156;28;20271;-77
2021/12/20 09:12:33;;;;;;;9.53;3.37;;;;;;;;;;5077117;28;20176;-77
2021/12/20 09:15:00;;;;;;;10.77;3.17;;;;;;;;;;5077505;28;20253;-77
2021/12/20 09:17:26;;;;;;;10.93;4.37;;;;;;;;;;5093966;28;20180;-77
2021/12/20 09:19:53;;;;;;;12.70;4.63;;;;;;;;;;5077597;28;20177;-79
2021/12/20 09:22:19;;;;;;;8.20;4.20;;;;;;;;;;5093792;28;20220;-78
2021/12/20 09:24:45;;;;;;;9.90;3.70;;;;;;;;;;5077134;28;20204;-78
2021/12/20 09:27:12;;;;;;;9.47;3.83;;;;;;;;;;5093664;28;20196;-77
2021/12/20 09:29:38;;;;;;;9.77;4.10;;;;;;;;;;5077075;28;20176;-77
2021/12/20 09:32:05;;;;;;;9.67;4.37;;;;;;;;;;5076993;28;20263;-78
2021/12/20 09:34:31;;;;;;;9.97;3.70;;;;;;;;;;5093524;28;20214;-77
2021/12/20 09:36:58;;;;;;;10.80;3.57;;;;;;;;;;5093711;28;20611;-78
2021/12/20 09:39:24;;;;;;;7.20;2.93;;;;;;;;;;5076859;28;20195;-80
2021/12/20 09:44:21;;;;;;;8.27;3.17;;;;;;;;;;5093301;28;20204;-79
2021/12/20 09:46:48;;;;;;;10.90;3.37;;;;;;;;;;5093898;28;20275;-80
2021/12/20 09:49:14;;;;;;;7.07;2.83;;;;;;;;;;5077245;28;20176;-81
2021/12/20 09:51:41;;;;;;;6.60;3.10;;;;;;;;;;5076748;28;20176;-80
2021/12/20 09:54:07;;;;;;;11.43;3.27;;;;;;;;;;5093347;28;20172;-81
2021/12/20 09:56:35;;;;;;;10.33;3.90;;;;;;;;;;5093304;28;20647;-79
2021/12/20 09:59:02;;;;;;;10.17;3.70;;;;;;;;;;5076611;28;20180;-80
2021/12/20 10:01:28;;;;;;;12.33;3.90;;;;;;;;;;5076840;28;20237;-80
2021/12/20 10:03:54;;;;;;;15.13;4.07;;;;;;;;;;5093908;28;20634;-81
2021/12/20 10:06:21;;;;;;;11.03;3.97;;;;;;;;;;5093782;28;20183;-79
2021/12/20 10:08:52;;;;;;;10.93;4.10;;;;;;;;;;5093603;28;20663;-78
2021/12/20 10:11:32;;;;;;;12.30;4.93;;;;;;;;;;5077041;28;20173;-78
2021/12/20 10:14:17;;;;;;;9.33;3.83;;;;;;;;;;5092932;28;20236;-78
2021/12/20 10:16:43;;;;;;;12.63;4.43;;;;;;;;;;5076212;28;20191;-78
2021/12/20 10:19:30;;;;;;;12.00;3.90;;;;;;;;;;5092745;28;20176;-78
2021/12/20 10:21:58;;;;;;;12.27;4.83;;;;;;;;;;5092599;28;20172;-78
2021/12/20 10:24:31;;;;;;;10.57;4.07;;;;;;;;;;5092798;28;20200;-78
2021/12/20 10:26:57;;;;;;;9.57;3.70;;;;;;;;;;5092495;28;20177;-78
2021/12/20 10:29:23;;;;;;;13.00;3.87;;;;;;;;;;5075840;28;20176;-78
2021/12/20 10:31:50;;;;;;;13.70;3.83;;;;;;;;;;5075482;28;20543;-78
2021/12/20 10:34:19;;;;;;;10.53;3.40;;;;;;;;;;5075628;28;20225;-78
2021/12/20 10:36:53;;;;;;;15.13;7.27;;;;;;;;;;5076205;28;20186;-78
2021/12/20 10:39:32;;;;;;;14.60;4.60;;;;;;;;;;5092395;28;20269;-78
2021/12/20 10:42:12;;;;;;;8.87;3.43;;;;;;;;;;5092279;28;20178;-79
2021/12/20 10:44:38;;;;;;;12.90;3.10;;;;;;;;;;5092506;28;20201;-78
2021/12/20 10:47:04;;;;;;;11.80;3.67;;;;;;;;;;5075551;28;20206;-78
2021/12/20 10:49:31;;;;;;;8.07;3.03;;;;;;;;;;5092435;28;20175;-78
2021/12/20 10:52:00;;;;;;;10.67;3.10;;;;;;;;;;5092021;28;20183;-78
2021/12/20 10:54:31;;;;;;;9.03;3.10;;;;;;;;;;5075253;28;20204;-79
2021/12/20 10:57:00;;;;;;;7.93;3.23;;;;;;;;;;5091808;28;20206;-78
2021/12/20 10:59:27;;;;;;;9.10;2.93;;;;;;;;;;5075544;28;20182;-78
2021/12/20 11:04:25;;;;;;;8.83;2.87;;;;;;;;;;5092056;28;20249;-78
2021/12/20 11:09:41;;;;;;;13.53;3.23;;;;;;;;;;5092205;28;20639;-77
2021/12/20 11:12:09;;;;;;;7.50;2.63;;;;;;;;;;5091863;28;20183;-77
2021/12/20 11:14:36;;;;;;;9.90;2.50;;;;;;;;;;5074907;28;20207;-79
2021/12/20 11:17:04;;;;;;;7.07;3.17;;;;;;;;;;5074977;28;20176;-78
2021/12/20 11:19:33;;;;;;;7.53;2.40;;;;;;;;;;5091965;28;20573;-79
2021/12/20 11:22:02;;;;;;;8.10;2.50;;;;;;;;;;5091507;28;20175;-78
2021/12/20 11:24:40;;;;;;;8.53;2.50;;;;;;;;;;5091633;28;20289;-79
2021/12/20 11:27:08;;;;;;;6.33;2.77;;;;;;;;;;5091594;28;20197;-78
2021/12/20 11:29:35;;;;;;;7.57;2.33;;;;;;;;;;5074753;28;20183;-78
2021/12/20 11:32:02;;;;;;;8.47;2.20;;;;;;;;;;5074592;28;20175;-76
2021/12/20 11:34:28;;;;;;;6.80;2.20;;;;;;;;;;5075207;28;20266;-77
2021/12/20 11:36:55;;;;;;;6.83;2.40;;;;;;;;;;5099008;22;20660;-78
2021/12/20 11:39:21;;;;;;;4.60;2.10;;;;;;;;;;5071513;28;20198;-78
2021/12/20 11:41:47;;;;;;;9.40;2.53;;;;;;;;;;5071469;28;20179;-77
2021/12/20 11:44:15;;;;;;;7.23;2.53;;;;;;;;;;5055132;28;20179;-78
2021/12/20 11:46:56;;;;;;;9.10;2.07;;;;;;;;;;5071409;28;20203;-78
2021/12/20 11:49:23;;;;;;;6.40;2.10;;;;;;;;;;5074133;28;20197;-77
2021/12/20 11:52:08;;;;;;;6.80;2.63;;;;;;;;;;5055459;28;20180;-77
2021/12/20 11:54:34;;;;;;;12.80;2.50;;;;;;;;;;5074153;28;20175;-77
2021/12/20 11:57:00;;;;;;;9.53;2.93;;;;;;;;;;5073223;28;20329;-77
2021/12/20 11:59:45;;;;;;;9.60;2.80;;;;;;;;;;5056104;28;20610;-77
2021/12/20 12:02:18;;;;;;;6.53;2.50;;;;;;;;;;5072940;28;20171;-77
2021/12/20 12:04:57;;;;;;;9.20;2.40;;;;;;;;;;5072615;28;20175;-77
2021/12/20 12:07:24;;;;;;;5.83;2.50;;;;;;;;;;5056104;28;20219;-77
2021/12/20 12:10:13;;;;;;;8.57;2.53;;;;;;;;;;5072959;28;20175;-78
2021/12/20 12:12:44;;;;;;;10.77;2.73;;;;;;;;;;5071024;28;20212;-78
2021/12/20 12:15:28;;;;;;;8.80;2.40;;;;;;;;;;5071262;28;20176;-78
2021/12/20 12:18:04;;;;;;;7.07;2.30;;;;;;;;;;5070529;28;20288;-78
2021/12/20 12:20:52;;;;;;;7.93;2.30;;;;;;;;;;5070840;28;20178;-78
2021/12/20 12:23:46;;;;;;;6.03;2.30;;;;;;;;;;5054574;28;20275;-78
2021/12/20 12:26:28;;;;;;;5.23;2.13;;;;;;;;;;5072282;28;20671;-78
2021/12/20 12:31:47;;;;;;;6.30;1.83;;;;;;;;;;5072221;28;20267;-78
2021/12/20 12:34:14;;;;;;;4.00;2.00;;;;;;;;;;5071476;28;20176;-78
2021/12/20 12:36:41;;;;;;;6.97;2.20;;;;;;;;;;5054460;28;20222;-78
2021/12/20 12:39:12;;;;;;;6.07;2.27;;;;;;;;;;5054676;28;20176;-78
2021/12/20 12:41:49;;;;;;;5.17;2.23;;;;;;;;;;5070988;28;20176;-78
2021/12/20 12:44:24;;;;;;;7.93;1.83;;;;;;;;;;5070941;28;20654;-78
2021/12/20 12:46:53;;;;;;;6.57;2.20;;;;;;;;;;5071269;28;20206;-79
2021/12/20 12:49:22;;;;;;;7.60;2.10;;;;;;;;;;5071507;28;20176;-78
2021/12/20 12:51:48;;;;;;;5.90;1.87;;;;;;;;;;5071089;28;20199;-78
2021/12/20 12:54:33;;;;;;;6.57;2.10;;;;;;;;;;5071333;28;20630;-78
2021/12/20 12:57:08;;;;;;;4.57;2.10;;;;;;;;;;5070915;28;20197;-78
2021/12/20 12:59:34;;;;;;;3.77;2.07;;;;;;;;;;5071135;28;20187;-79
2021/12/20 13:02:08;;;;;;;7.13;2.10;;;;;;;;;;5053866;28;20184;-79
2021/12/20 13:04:44;;;;;;;7.67;1.80;;;;;;;;;;5071265;28;20214;-79
2021/12/20 13:07:11;;;;;;;4.30;2.13;;;;;;;;;;5070997;28;20203;-79
2021/12/20 13:09:43;;;;;;;8.20;1.77;;;;;;;;;;5054995;28;20184;-79
2021/12/20 13:12:17;;;;;;;6.77;1.83;;;;;;;;;;5055217;28;20173;-79
2021/12/20 13:14:55;;;;;;;7.97;2.00;;;;;;;;;;5071200;28;20173;-80
2021/12/20 13:17:31;;;;;;;3.30;1.60;;;;;;;;;;5054730;28;20294;-79
2021/12/20 13:20:35;;;;;;;5.13;1.70;;;;;;;;;;5073749;28;20195;-79
2021/12/20 13:23:09;;;;;;;5.27;2.00;;;;;;;;;;5065228;28;20188;-79
2021/12/20 13:25:36;;;;;;;8.00;2.00;;;;;;;;;;5057975;28;20194;-80
2021/12/20 13:28:02;;;;;;;5.03;1.80;;;;;;;;;;5058079;28;20699;-79
2021/12/20 13:30:29;;;;;;;5.00;1.70;;;;;;;;;;5074180;28;20172;-79
2021/12/20 13:32:56;;;;;;;5.03;1.80;;;;;;;;;;5075747;28;20182;-79
2021/12/20 13:35:22;;;;;;;5.33;1.60;;;;;;;;;;5074687;28;20177;-79
2021/12/20 13:37:50;;;;;;;4.97;2.03;;;;;;;;;;5058018;28;20306;-79
2021/12/20 13:40:16;;;;;;;4.63;1.87;;;;;;;;;;5057945;28;20209;-80
2021/12/20 13:42:53;;;;;;;6.20;1.70;;;;;;;;;;5074354;28;20184;-79
2021/12/20 13:45:20;;;;;;;5.73;1.77;;;;;;;;;;5075403;28;20167;-80
2021/12/20 13:47:46;;;;;;;4.97;1.70;;;;;;;;;;5058208;28;20215;-79
2021/12/20 13:50:18;;;;;;;4.20;1.50;;;;;;;;;;5057785;28;20171;-78
2021/12/20 13:52:48;;;;;;;2.60;1.57;;;;;;;;;;5074125;28;20174;-79
2021/12/20 13:55:14;;;;;;;4.60;1.60;;;;;;;;;;5075484;28;20185;-80
2021/12/20 13:57:41;;;;;;;4.60;1.70;;;;;;;;;;5057836;28;20205;-79
2021/12/20 14:00:08;;;;;;;4.03;1.50;;;;;;;;;;5073698;28;20661;-78
2021/12/20 14:02:38;;;;;;;3.90;1.50;;;;;;;;;;5074091;28;20671;-80
2021/12/20 14:05:24;;;;;;;4.63;1.70;;;;;;;;;;5074073;28;20180;-79
2021/12/20 14:07:53;;;;;;;4.40;1.40;;;;;;;;;;5073944;28;20212;-79
2021/12/20 14:10:27;;;;;;;2.87;1.50;;;;;;;;;;5073678;28;20551;-80
2021/12/20 14:13:01;;;;;;;5.43;1.57;;;;;;;;;;5074181;28;20177;-80
2021/12/20 14:15:34;;;;;;;3.83;1.60;;;;;;;;;;5075358;28;20173;-79
2021/12/20 14:18:03;;;;;;;2.50;1.23;;;;;;;;;;5073633;28;20193;-79
2021/12/20 14:20:49;;;;;;;3.20;1.70;;;;;;;;;;5074620;28;20169;-79
2021/12/20 14:23:24;;;;;;;4.93;1.60;;;;;;;;;;5073929;28;20203;-79
2021/12/20 14:25:52;;;;;;;3.97;1.20;;;;;;;;;;5073503;28;20555;-79
2021/12/20 14:28:28;;;;;;;5.87;1.97;;;;;;;;;;5056641;28;20213;-79
2021/12/20 14:30:54;;;;;;;3.90;1.60;;;;;;;;;;5072187;28;20172;-79
2021/12/20 14:33:22;;;;;;;3.23;1.50;;;;;;;;;;5072963;28;20169;-79
2021/12/20 14:35:55;;;;;;;5.23;1.60;;;;;;;;;;5057037;28;20762;-80
2021/12/20 14:38:41;;;;;;;1.90;1.30;;;;;;;;;;5073257;28;20181;-79
2021/12/20 14:41:16;;;;;;;4.60;1.67;;;;;;;;;;5072935;28;20189;-79
2021/12/20 14:43:44;;;;;;;4.90;1.40;;;;;;;;;;5073965;28;20176;-79
2021/12/20 14:46:15;;;;;;;3.20;1.43;;;;;;;;;;5073459;28;20222;-79
2021/12/20 14:48:45;;;;;;;3.20;1.20;;;;;;;;;;5057509;28;20215;-79
2021/12/20 14:51:16;;;;;;;5.83;1.60;;;;;;;;;;5057587;28;20200;-79
2021/12/20 14:53:42;;;;;;;3.37;1.30;;;;;;;;;;5073243;28;20535;-78
2021/12/20 14:56:10;;;;;;;4.47;1.30;;;;;;;;;;5073538;28;20193;-79
2021/12/20 14:58:36;;;;;;;4.00;1.50;;;;;;;;;;5074575;28;20184;-79
2021/12/20 15:01:03;;;;;;;2.90;1.53;;;;;;;;;;5074575;28;20632;-78
2021/12/20 15:03:29;;;;;;;2.57;1.20;;;;;;;;;;5058297;28;20188;-79
2021/12/20 15:06:02;;;;;;;5.10;1.50;;;;;;;;;;5073595;28;20180;-78
2021/12/20 15:08:28;;;;;;;3.23;1.30;;;;;;;;;;5072427;28;20207;-78
2021/12/20 15:10:54;;;;;;;1.83;1.00;;;;;;;;;;5072240;28;20183;-78
2021/12/20 15:13:20;;;;;;;2.50;1.30;;;;;;;;;;5072642;28;20186;-77